createdAt,value
2019-03-22T00:02:06.657Z,9.04
2019-03-22T00:04:36.015Z,9.08
2019-03-22T00:07:05.483Z,9.05
2019-03-22T00:09:35.040Z,9.02
2019-03-22T00:12:04.544Z,9.06
2019-03-22T00:14:33.868Z,9.00
2019-03-22T00:17:03.447Z,8.98
2019-03-22T00:19:34.269Z,8.78
2019-03-22T00:22:03.915Z,8.89
2019-03-22T00:24:33.299Z,8.93
2019-03-22T00:27:02.852Z,8.96
2019-03-22T00:29:32.245Z,8.98
2019-03-22T00:32:01.807Z,8.96
2019-03-22T00:34:31.229Z,8.92
2019-03-22T00:37:00.910Z,8.88
2019-03-22T00:39:30.484Z,8.86
2019-03-22T00:41:59.990Z,8.97
2019-03-22T00:44:29.458Z,8.89
2019-03-22T00:47:00.314Z,8.84
2019-03-22T00:49:29.777Z,8.69
2019-03-22T00:51:59.208Z,8.68
2019-03-22T00:54:28.575Z,8.74
2019-03-22T00:56:59.551Z,8.79
2019-03-22T00:59:28.881Z,8.76
2019-03-22T01:01:58.258Z,8.80
2019-03-22T01:04:27.635Z,8.85
2019-03-22T01:17:45.399Z,8.89
2019-03-22T01:20:15.152Z,8.82
2019-03-22T01:22:44.635Z,8.77
2019-03-22T01:25:14.123Z,8.85
2019-03-22T01:27:43.592Z,8.82
2019-03-22T01:30:13.543Z,8.81
2019-03-22T01:32:42.922Z,8.83
2019-03-22T01:35:12.601Z,8.82
2019-03-22T01:37:41.974Z,8.87
2019-03-22T01:40:11.662Z,8.73
2019-03-22T01:42:41.053Z,8.78
2019-03-22T01:45:11.213Z,8.84
2019-03-22T01:47:40.589Z,8.79
2019-03-22T01:50:11.654Z,8.81
2019-03-22T01:52:41.378Z,8.69
2019-03-22T01:55:11.461Z,8.77
2019-03-22T01:57:51.935Z,8.75
2019-03-22T02:00:12.560Z,8.76
2019-03-22T02:02:41.921Z,8.76
2019-03-22T02:05:11.767Z,8.70
2019-03-22T02:07:41.259Z,8.79
2019-03-22T02:10:11.710Z,8.72
2019-03-22T02:12:42.230Z,8.72
2019-03-22T02:15:13.405Z,8.73
2019-03-22T02:17:43.261Z,8.68
2019-03-22T02:20:13.090Z,8.76
2019-03-22T02:22:42.617Z,8.74
2019-03-22T02:25:12.327Z,8.72
2019-03-22T02:27:41.900Z,8.75
2019-03-22T02:30:11.566Z,8.72
2019-03-22T02:32:41.031Z,8.71
2019-03-22T02:35:26.990Z,8.75
2019-03-22T02:37:42.314Z,8.74
2019-03-22T02:40:12.673Z,8.70
2019-03-22T02:42:42.002Z,8.67
2019-03-22T02:45:11.740Z,8.69
2019-03-22T02:47:41.259Z,8.72
2019-03-22T02:50:17.887Z,8.59
2019-03-22T02:52:42.575Z,8.62
2019-03-22T02:55:12.301Z,8.64
2019-03-22T02:57:41.722Z,8.72
2019-03-22T03:00:11.776Z,8.72
2019-03-22T03:02:41.412Z,8.66
2019-03-22T03:05:11.357Z,8.67
2019-03-22T03:07:40.741Z,8.67
2019-03-22T03:10:11.092Z,8.70
2019-03-22T03:12:40.453Z,8.64
2019-03-22T03:15:11.053Z,8.68
2019-03-22T03:17:40.574Z,8.65
2019-03-22T03:20:12.899Z,8.67
2019-03-22T03:22:42.280Z,8.67
2019-03-22T03:25:12.332Z,8.66
2019-03-22T03:27:41.848Z,8.62
2019-03-22T03:36:19.086Z,8.60
2019-03-22T03:38:48.428Z,8.52
2019-03-22T03:41:17.863Z,8.52
2019-03-22T03:43:47.321Z,8.46
2019-03-22T03:46:16.729Z,8.58
2019-03-22T03:48:46.165Z,8.46
2019-03-22T03:51:15.631Z,8.48
2019-03-22T03:53:45.105Z,8.56
2019-03-22T03:56:14.557Z,8.58
2019-03-22T03:58:52.213Z,8.56
2019-03-22T04:01:15.555Z,8.57
2019-03-22T04:03:44.917Z,8.58
2019-03-22T04:06:14.290Z,8.51
2019-03-22T04:08:43.737Z,8.55
2019-03-22T04:11:13.206Z,8.60
2019-03-22T04:13:42.686Z,8.61
2019-03-22T04:16:12.078Z,8.58
2019-03-22T04:18:41.588Z,8.58
2019-03-22T04:21:11.103Z,8.56
2019-03-22T04:23:40.645Z,8.48
2019-03-22T04:26:10.040Z,8.46
2019-03-22T04:28:39.588Z,8.45
2019-03-22T04:31:09.140Z,8.57
2019-03-22T04:33:39.031Z,8.60
2019-03-22T04:36:08.418Z,8.55
2019-03-22T04:38:37.831Z,8.58
2019-03-22T04:41:07.333Z,8.57
2019-03-22T04:43:37.810Z,8.57
2019-03-22T04:46:08.176Z,8.51
2019-03-22T04:48:38.931Z,8.56
2019-03-22T04:51:09.591Z,8.60
2019-03-22T04:53:44.256Z,8.53
2019-03-22T04:56:16.714Z,8.51
2019-03-22T04:58:49.156Z,8.46
2019-03-22T05:01:20.364Z,8.53
2019-03-22T05:03:50.159Z,8.50
2019-03-22T05:06:21.761Z,8.53
2019-03-22T05:08:52.847Z,8.58
2019-03-22T05:11:23.220Z,8.58
2019-03-22T05:13:56.231Z,8.54
2019-03-22T05:16:26.753Z,8.56
2019-03-22T05:18:57.484Z,8.45
2019-03-22T05:21:28.701Z,8.47
2019-03-22T05:24:00.280Z,8.57
2019-03-22T05:26:32.390Z,8.59
2019-03-22T05:29:02.355Z,8.50
2019-03-22T05:32:10.219Z,8.49
2019-03-22T05:34:39.625Z,8.42
2019-03-22T05:37:09.309Z,8.50
2019-03-22T05:39:41.079Z,8.51
2019-03-22T05:42:12.507Z,8.56
2019-03-22T05:44:41.926Z,8.56
2019-03-22T05:47:11.514Z,8.60
2019-03-22T05:49:41.092Z,8.62
2019-03-22T05:52:10.678Z,8.63
2019-03-22T05:54:40.021Z,8.64
2019-03-22T05:57:13.606Z,8.61
2019-03-22T05:59:42.680Z,8.60
2019-03-22T06:02:12.084Z,8.61
2019-03-22T06:04:41.617Z,8.60
2019-03-22T06:07:11.200Z,8.58
2019-03-22T06:09:41.783Z,8.55
2019-03-22T06:12:11.207Z,8.45
2019-03-22T06:14:40.796Z,8.56
2019-03-22T06:17:10.286Z,8.60
2019-03-22T06:19:42.354Z,8.59
2019-03-22T06:22:36.526Z,8.58
2019-03-22T06:25:06.269Z,8.58
2019-03-22T06:27:35.811Z,8.56
2019-03-22T06:30:07.641Z,8.56
2019-03-22T06:32:37.229Z,8.60
2019-03-22T06:35:07.055Z,8.61
2019-03-22T06:37:36.560Z,8.62
2019-03-22T06:40:06.552Z,8.58
2019-03-22T06:42:35.951Z,8.57
2019-03-22T06:45:06.003Z,8.60
2019-03-22T06:47:35.652Z,8.59
2019-03-22T06:50:05.930Z,8.52
2019-03-22T06:52:35.531Z,8.55
2019-03-22T06:55:06.414Z,8.54
2019-03-22T06:57:35.973Z,8.62
2019-03-22T07:00:07.413Z,8.59
2019-03-22T07:02:37.050Z,8.65
2019-03-22T07:05:07.049Z,8.58
2019-03-22T07:07:36.906Z,8.56
2019-03-22T07:10:06.721Z,8.59
2019-03-22T07:12:36.203Z,8.61
2019-03-22T07:15:06.374Z,8.59
2019-03-22T07:17:35.817Z,8.63
2019-03-22T07:20:06.016Z,8.62
2019-03-22T07:22:35.420Z,8.58
2019-03-22T07:25:05.397Z,8.57
2019-03-22T07:27:34.888Z,8.57
2019-03-22T07:30:04.853Z,8.55
2019-03-22T07:32:34.373Z,8.55
2019-03-22T07:35:03.999Z,8.53
2019-03-22T07:37:33.327Z,8.52
2019-03-22T07:40:02.699Z,8.59
2019-03-22T07:42:32.536Z,8.55
2019-03-22T07:45:01.967Z,8.50
2019-03-22T07:47:31.384Z,8.52
2019-03-22T07:50:01.089Z,8.46
2019-03-22T07:52:30.544Z,8.47
2019-03-22T07:55:00.152Z,8.55
2019-03-22T07:57:29.802Z,8.57
2019-03-22T07:59:59.170Z,8.50
2019-03-22T08:02:28.651Z,8.50
2019-03-22T08:04:58.309Z,8.58
2019-03-22T08:07:27.809Z,8.56
2019-03-22T08:09:57.385Z,8.61
2019-03-22T08:12:29.162Z,8.50
2019-03-22T08:14:58.532Z,8.55
2019-03-22T08:17:28.089Z,8.58
2019-03-22T08:19:57.637Z,8.57
2019-03-22T08:22:27.209Z,8.49
2019-03-22T08:24:56.544Z,8.52
2019-03-22T08:27:25.940Z,8.63
2019-03-22T08:29:55.316Z,8.62
2019-03-22T08:32:24.727Z,8.56
2019-03-22T08:34:54.247Z,8.63
2019-03-22T08:37:23.665Z,8.59
2019-03-22T08:39:55.799Z,8.67
2019-03-22T08:42:25.824Z,8.75
2019-03-22T08:44:55.216Z,8.76
2019-03-22T08:47:33.678Z,8.80
2019-03-22T08:49:56.130Z,8.87
2019-03-22T08:52:25.458Z,8.89
2019-03-22T08:54:54.776Z,8.89
2019-03-22T08:57:25.206Z,8.87
2019-03-22T08:59:54.704Z,8.92
2019-03-22T09:02:24.149Z,8.94
2019-03-22T09:04:53.646Z,8.90
2019-03-22T09:07:24.411Z,8.86
2019-03-22T09:09:54.143Z,8.92
2019-03-22T09:12:23.632Z,8.98
2019-03-22T09:14:52.944Z,8.98
2019-03-22T09:17:22.322Z,8.85
2019-03-22T09:19:51.780Z,8.91
2019-03-22T09:22:21.099Z,8.98
2019-03-22T09:24:50.478Z,9.01
2019-03-22T09:27:22.313Z,9.07
2019-03-22T09:29:51.842Z,9.01
2019-03-22T09:32:21.509Z,9.12
2019-03-22T09:34:50.845Z,9.04
2019-03-22T09:37:20.224Z,9.15
2019-03-22T09:39:49.734Z,9.10
2019-03-22T09:42:19.070Z,9.13
2019-03-22T09:44:48.707Z,9.11
2019-03-22T09:47:18.524Z,9.11
2019-03-22T09:49:51.021Z,9.14
2019-03-22T09:52:19.224Z,9.20
2019-03-22T09:54:48.564Z,9.25
2019-03-22T09:57:17.979Z,9.18
2019-03-22T09:59:47.456Z,9.26
2019-03-22T10:02:17.010Z,9.30
2019-03-22T10:04:49.388Z,9.26
2019-03-22T10:07:18.887Z,9.41
2019-03-22T10:09:48.233Z,9.45
2019-03-22T10:12:17.616Z,9.40
2019-03-22T10:14:47.288Z,9.47
2019-03-22T10:17:17.069Z,9.64
2019-03-22T10:19:46.633Z,9.55
2019-03-22T10:22:16.015Z,9.70
2019-03-22T10:24:45.668Z,9.83
2019-03-22T10:27:15.432Z,9.85
2019-03-22T10:29:44.895Z,9.90
2019-03-22T10:32:14.262Z,9.75
2019-03-22T10:34:43.818Z,9.92
2019-03-22T10:37:13.490Z,9.95
2019-03-22T10:39:42.991Z,9.83
2019-03-22T10:42:12.601Z,9.97
2019-03-22T10:44:42.658Z,10.00
2019-03-22T10:47:12.428Z,10.06
2019-03-22T10:49:42.345Z,10.06
2019-03-22T10:52:11.847Z,10.02
2019-03-22T10:54:41.391Z,10.17
2019-03-22T10:57:11.424Z,10.13
2019-03-22T10:59:41.069Z,10.20
2019-03-22T11:02:10.640Z,10.30
2019-03-22T11:04:40.212Z,10.30
2019-03-22T11:07:10.143Z,10.43
2019-03-22T11:09:39.601Z,10.48
2019-03-22T11:12:12.420Z,10.50
2019-03-22T11:15:01.419Z,10.45
2019-03-22T11:17:31.420Z,10.42
2019-03-22T11:20:00.917Z,10.60
2019-03-22T11:22:30.474Z,10.57
2019-03-22T11:25:00.279Z,10.69
2019-03-22T11:27:30.041Z,10.70
2019-03-22T11:29:59.527Z,10.80
2019-03-22T11:32:29.074Z,10.94
2019-03-22T11:34:58.779Z,10.98
2019-03-22T11:37:28.447Z,10.90
2019-03-22T11:39:58.487Z,10.91
2019-03-22T11:42:28.115Z,11.01
2019-03-22T11:45:00.649Z,11.09
2019-03-22T11:47:30.239Z,11.10
2019-03-22T11:49:59.737Z,11.19
2019-03-22T11:52:30.039Z,11.33
2019-03-22T11:54:59.499Z,11.47
2019-03-22T11:57:29.142Z,11.41
2019-03-22T11:59:58.681Z,11.55
2019-03-22T12:02:30.119Z,11.46
2019-03-22T12:04:59.281Z,11.54
2019-03-22T12:07:30.290Z,11.47
2019-03-22T12:10:05.637Z,11.30
2019-03-22T12:12:44.370Z,11.67
2019-03-22T12:15:16.535Z,11.60
2019-03-22T12:17:46.278Z,11.64
2019-03-22T12:20:17.384Z,11.73
2019-03-22T12:22:46.968Z,11.78
2019-03-22T12:25:17.527Z,11.90
2019-03-22T12:27:48.481Z,11.90
2019-03-22T12:30:18.371Z,11.83
2019-03-22T12:32:47.871Z,11.85
2019-03-22T12:35:17.909Z,12.06
2019-03-22T12:37:47.683Z,12.31
2019-03-22T12:40:18.779Z,12.40
2019-03-22T12:42:48.999Z,12.73
2019-03-22T12:45:23.073Z,12.86
2019-03-22T12:47:52.596Z,13.21
2019-03-22T12:50:22.889Z,13.25
2019-03-22T12:52:53.901Z,13.38
2019-03-22T12:55:23.477Z,13.19
2019-03-22T12:57:53.074Z,13.24
2019-03-22T13:00:22.799Z,13.51
2019-03-22T13:02:52.691Z,13.55
2019-03-22T13:05:23.037Z,13.26
2019-03-22T13:07:52.713Z,13.70
2019-03-22T13:10:23.560Z,13.77
2019-03-22T13:12:53.005Z,13.79
2019-03-22T13:15:22.817Z,13.61
2019-03-22T13:17:52.367Z,13.79
2019-03-22T13:20:26.878Z,14.03
2019-03-22T13:22:56.221Z,14.03
2019-03-22T13:25:43.196Z,13.89
2019-03-22T13:28:13.636Z,13.82
2019-03-22T13:30:43.029Z,13.84
2019-03-22T13:33:12.424Z,14.13
2019-03-22T13:35:41.992Z,14.15
2019-03-22T13:38:14.659Z,14.14
2019-03-22T13:40:44.184Z,14.29
2019-03-22T13:43:15.896Z,14.37
2019-03-22T13:46:01.133Z,14.24
2019-03-22T13:48:30.489Z,14.43
2019-03-22T13:51:00.143Z,14.74
2019-03-22T13:53:29.824Z,15.10
2019-03-22T13:56:02.959Z,14.96
2019-03-22T13:58:35.034Z,15.02
2019-03-22T14:01:06.456Z,15.16
2019-03-22T14:03:35.855Z,14.91
2019-03-22T14:06:10.361Z,15.07
2019-03-22T14:08:39.898Z,14.85
2019-03-22T14:11:09.380Z,15.16
2019-03-22T14:13:39.796Z,15.01
2019-03-22T14:16:11.874Z,14.96
2019-03-22T14:18:41.379Z,15.24
2019-03-22T14:21:14.037Z,15.19
2019-03-22T14:23:45.629Z,15.28
2019-03-22T14:26:15.055Z,15.56
2019-03-22T14:28:44.433Z,15.64
2019-03-22T14:31:13.777Z,15.40
2019-03-22T14:33:43.183Z,15.33
2019-03-22T14:36:12.639Z,15.30
2019-03-22T14:38:44.194Z,15.92
2019-03-22T14:41:13.276Z,16.12
2019-03-22T14:43:43.171Z,16.35
2019-03-22T14:46:12.654Z,16.52
2019-03-22T14:48:42.101Z,16.04
2019-03-22T14:51:11.615Z,15.93
2019-03-22T14:54:26.873Z,16.21
2019-03-22T14:56:58.615Z,16.11
2019-03-22T14:59:28.063Z,16.06
2019-03-22T15:01:57.642Z,16.09
2019-03-22T15:04:27.002Z,16.10
2019-03-22T15:06:56.389Z,16.04
2019-03-22T15:09:26.098Z,15.83
2019-03-22T15:11:55.564Z,15.90
2019-03-22T15:14:42.630Z,15.91
2019-03-22T15:17:22.913Z,16.08
2019-03-22T15:20:10.101Z,16.01
2019-03-22T15:23:04.295Z,16.01
2019-03-22T15:25:52.688Z,16.25
2019-03-22T15:28:35.686Z,16.43
2019-03-22T15:31:30.193Z,16.56
2019-03-22T15:34:07.252Z,16.42
2019-03-22T15:36:54.780Z,16.50
2019-03-22T15:39:43.489Z,16.74
2019-03-22T15:42:13.257Z,16.58
2019-03-22T15:44:42.709Z,17.07
2019-03-22T15:47:12.197Z,17.51
2019-03-22T15:49:41.770Z,18.99
2019-03-22T15:52:11.190Z,19.01
2019-03-22T15:54:43.507Z,20.30
2019-03-22T15:57:13.104Z,20.03
2019-03-22T15:59:42.583Z,19.79
2019-03-22T16:02:12.231Z,18.02
2019-03-22T16:04:41.775Z,16.57
2019-03-22T16:07:11.199Z,18.97
2019-03-22T16:09:40.803Z,19.30
2019-03-22T16:12:10.251Z,17.87
2019-03-22T16:14:41.975Z,19.32
2019-03-22T16:17:11.425Z,18.33
2019-03-22T16:19:41.127Z,19.27
2019-03-22T16:22:10.526Z,19.11
2019-03-22T16:24:40.098Z,19.84
2019-03-22T16:27:09.606Z,21.16
2019-03-22T16:29:39.028Z,19.22
2019-03-22T16:32:08.524Z,19.61
2019-03-22T16:34:38.074Z,17.97
2019-03-22T16:37:07.541Z,18.57
2019-03-22T16:39:36.979Z,18.27
2019-03-22T16:42:06.426Z,18.62
2019-03-22T16:44:35.874Z,18.15
2019-03-22T16:47:05.330Z,17.02
2019-03-22T16:49:34.784Z,16.29
2019-03-22T16:52:04.390Z,15.54
2019-03-22T16:54:33.862Z,15.59
2019-03-22T16:57:03.521Z,15.42
2019-03-22T16:59:32.876Z,15.43
2019-03-22T17:02:02.428Z,15.43
2019-03-22T17:04:32.019Z,15.28
2019-03-22T17:07:01.373Z,15.18
2019-03-22T17:09:53.705Z,15.10
2019-03-22T17:12:36.270Z,14.96
2019-03-22T17:15:06.056Z,14.87
2019-03-22T17:17:44.919Z,14.77
2019-03-22T17:23:16.873Z,14.70
2019-03-22T17:25:46.284Z,14.52
2019-03-22T17:28:15.739Z,14.58
2019-03-22T17:30:45.938Z,14.30
2019-03-22T17:33:16.023Z,14.31
2019-03-22T17:35:51.451Z,14.35
2019-03-22T17:38:21.150Z,14.20
2019-03-22T17:41:01.431Z,14.17
2019-03-22T17:43:32.713Z,14.06
2019-03-22T17:54:02.509Z,13.68
2019-03-22T17:56:33.569Z,13.77
2019-03-22T17:59:08.094Z,13.75
2019-03-22T18:01:44.929Z,13.53
2019-03-22T18:04:23.700Z,13.55
2019-03-22T18:06:46.054Z,13.49
2019-03-22T18:09:15.639Z,13.34
2019-03-22T18:11:45.094Z,13.44
2019-03-22T18:14:14.434Z,13.23
2019-03-22T18:16:44.021Z,13.26
2019-03-22T18:19:13.535Z,13.13
2019-03-22T18:21:43.110Z,13.17
2019-03-22T18:24:12.532Z,12.89
2019-03-22T18:26:42.190Z,12.89
2019-03-22T18:29:11.810Z,12.65
2019-03-22T18:31:41.148Z,12.61
2019-03-22T18:34:10.584Z,12.44
2019-03-22T18:36:40.095Z,12.54
2019-03-22T18:39:10.631Z,12.40
2019-03-22T18:41:39.996Z,12.33
2019-03-22T18:44:09.715Z,12.41
2019-03-22T18:46:39.360Z,12.19
2019-03-22T18:49:09.085Z,12.19
2019-03-22T18:51:38.540Z,12.33
2019-03-22T18:54:08.186Z,12.24
2019-03-22T18:56:37.760Z,11.97
2019-03-22T18:59:07.349Z,12.00
2019-03-22T19:01:36.827Z,12.17
2019-03-22T19:04:06.315Z,12.17
2019-03-22T19:06:37.693Z,11.94
2019-03-22T19:09:08.471Z,11.91
2019-03-22T19:11:37.969Z,11.99
2019-03-22T19:14:07.434Z,11.85
2019-03-22T19:16:36.877Z,11.92
2019-03-22T19:19:06.350Z,11.86
2019-03-22T19:21:35.787Z,11.81
2019-03-22T19:24:05.172Z,11.73
2019-03-22T19:26:34.618Z,11.63
2019-03-22T19:29:04.053Z,11.81
2019-03-22T19:31:33.486Z,11.75
2019-03-22T19:34:02.857Z,11.77
2019-03-22T19:36:32.367Z,11.56
2019-03-22T19:39:01.833Z,11.56
2019-03-22T19:41:31.278Z,11.63
2019-03-22T19:44:00.911Z,11.66
2019-03-22T19:46:30.387Z,11.60
2019-03-22T19:48:59.862Z,11.58
2019-03-22T19:51:29.213Z,11.56
2019-03-22T19:53:58.628Z,11.58
2019-03-22T19:56:28.117Z,11.56
2019-03-22T19:58:57.679Z,11.59
2019-03-22T20:01:27.018Z,11.59
2019-03-22T20:03:56.501Z,11.47
2019-03-22T20:06:25.942Z,11.55
2019-03-22T20:08:55.545Z,11.55
2019-03-22T20:11:27.450Z,11.42
2019-03-22T20:13:56.917Z,11.34
2019-03-22T20:16:26.421Z,11.34
2019-03-22T20:18:55.858Z,11.38
2019-03-22T20:21:25.207Z,11.37
2019-03-22T20:23:54.720Z,11.32
2019-03-22T20:26:24.287Z,11.26
2019-03-22T20:28:53.720Z,11.26
2019-03-22T20:31:23.098Z,11.30
2019-03-22T20:33:53.116Z,11.29
2019-03-22T20:36:22.676Z,11.26
2019-03-22T20:38:52.184Z,11.28
2019-03-22T20:41:21.573Z,11.21
2019-03-22T20:43:51.071Z,11.15
2019-03-22T20:46:20.434Z,11.13
2019-03-22T20:48:51.492Z,11.09
2019-03-22T20:51:20.815Z,11.16
2019-03-22T20:53:50.841Z,10.99
2019-03-22T20:56:20.412Z,11.02
2019-03-22T20:58:49.762Z,10.99
2019-03-22T21:01:19.246Z,10.95
2019-03-22T21:03:50.151Z,10.88
2019-03-22T21:06:20.004Z,10.86
2019-03-22T21:08:49.485Z,10.81
2019-03-22T21:11:18.827Z,10.85
2019-03-22T21:13:49.688Z,10.78
2019-03-22T21:16:19.415Z,10.64
2019-03-22T21:18:48.807Z,10.67
2019-03-22T21:21:18.281Z,10.67
2019-03-22T21:23:47.662Z,10.69
2019-03-22T21:26:17.236Z,10.61
2019-03-22T21:28:48.805Z,10.63
2019-03-22T21:31:18.360Z,10.54
2019-03-22T21:33:47.792Z,10.53
2019-03-22T21:36:17.313Z,10.45
2019-03-22T21:38:46.832Z,10.42
2019-03-22T21:41:16.255Z,10.44
2019-03-22T21:43:45.655Z,10.36
2019-03-22T21:46:15.135Z,10.34
2019-03-22T21:48:44.615Z,10.31
2019-03-22T21:51:14.359Z,10.27
2019-03-22T21:53:43.718Z,10.29
2019-03-22T21:56:13.254Z,10.23
2019-03-22T21:58:42.735Z,10.22
2019-03-22T22:01:12.160Z,10.16
2019-03-22T22:03:42.781Z,10.17
2019-03-22T22:06:13.436Z,10.10
2019-03-22T22:08:42.976Z,10.08
2019-03-22T22:11:12.353Z,10.10
2019-03-22T22:13:42.231Z,10.01
2019-03-22T22:16:11.895Z,9.96
2019-03-22T22:18:41.549Z,9.96
2019-03-22T22:21:12.157Z,9.97
2019-03-22T22:23:41.620Z,9.95
2019-03-22T22:26:21.009Z,9.92
2019-03-22T22:28:50.454Z,9.90
2019-03-22T22:32:21.114Z,9.84
2019-03-22T22:34:50.487Z,9.91
2019-03-22T22:37:20.683Z,9.78
2019-03-22T22:39:50.322Z,9.79
2019-03-22T22:42:19.995Z,9.76
2019-03-22T22:44:50.794Z,9.72
2019-03-22T22:47:20.621Z,9.71
2019-03-22T22:49:50.395Z,9.65
2019-03-22T22:52:19.987Z,9.70
2019-03-22T22:54:49.523Z,9.69
2019-03-22T22:57:19.216Z,9.70
2019-03-22T22:59:48.631Z,9.72
2019-03-22T23:02:18.069Z,9.64
2019-03-22T23:04:47.604Z,9.57
2019-03-22T23:07:17.051Z,9.66
2019-03-22T23:09:46.483Z,9.62
2019-03-22T23:12:15.968Z,9.64
2019-03-22T23:14:45.498Z,9.71
2019-03-22T23:17:14.937Z,9.62
2019-03-22T23:19:44.301Z,9.53
2019-03-22T23:22:13.922Z,9.43
2019-03-22T23:24:44.605Z,9.52
2019-03-22T23:27:14.253Z,9.49
2019-03-22T23:29:43.735Z,9.46
2019-03-22T23:32:13.224Z,9.32
2019-03-22T23:34:42.595Z,9.31
2019-03-22T23:37:12.065Z,9.31
2019-03-22T23:39:41.578Z,9.32
2019-03-22T23:42:10.989Z,9.20
2019-03-22T23:44:40.376Z,9.13
2019-03-22T23:47:09.919Z,9.01
2019-03-22T23:49:39.368Z,9.02
2019-03-22T23:52:08.774Z,9.02
2019-03-22T23:54:38.267Z,8.92
2019-03-22T23:57:07.668Z,8.86
2019-03-22T23:59:37.266Z,8.83
